Time;durP1;ratioP1;P1;durP2;ratioP2;P2;SDS_P1;SDS_P2;PMS_P1;PMS_P2;Temp;Humidity;BMP_temperature;BMP_pressure;BME280_temperature;BME280_humidity;BME280_pressure;Samples;Min_cycle;Max_cycle;Signal;HPM_P1;HPM_P2
2023/10/26 00:01:27;;;;;;;;;0.00;0.00;;;;;21.93;54.36;99143.69;5079193;27;45453;-77
2023/10/26 00:03:53;;;;;;;;;0.00;0.00;;;;;22.32;54.07;99189.16;5079058;27;45235;-77
2023/10/26 00:06:18;;;;;;;;;0.00;0.00;;;;;22.31;54.62;99192.75;5079033;27;45370;-77
2023/10/26 00:08:45;;;;;;;;;0.00;0.00;;;;;21.93;54.51;99133.06;5079235;27;45246;-77
2023/10/26 00:11:10;;;;;;;;;0.00;0.00;;;;;22.21;54.56;99180.72;5078908;27;46101;-77
2023/10/26 00:13:36;;;;;;;;;0.00;0.00;;;;;22.15;54.21;99167.66;5077368;28;45485;-77
2023/10/26 00:16:02;;;;;;;;;0.00;0.00;;;;;22.04;54.24;99145.00;5077145;27;45477;-77
2023/10/26 00:18:27;;;;;;;;;0.67;0.00;;;;;21.97;54.54;99130.22;5079247;27;45500;-77
2023/10/26 00:21:00;;;;;;;;;0.00;0.00;;;;;22.41;54.32;99196.75;5077416;28;46855;-77
2023/10/26 00:23:26;;;;;;;;;1.00;0.00;;;;;22.37;54.38;99203.13;5078671;27;45541;-77
2023/10/26 00:25:52;;;;;;;;;0.00;0.00;;;;;22.39;54.29;99209.25;5078822;28;45261;-77
2023/10/26 00:28:17;;;;;;;;;0.00;0.00;;;;;22.32;53.91;99189.16;5078923;27;45268;-77
2023/10/26 00:30:43;;;;;;;;;0.00;0.00;;;;;22.47;54.14;99200.13;5078637;27;46143;-77
2023/10/26 00:33:08;;;;;;;;;0.00;0.00;;;;;22.23;53.93;99163.75;5077693;28;45356;-77
2023/10/26 00:35:34;;;;;;;;;0.00;0.00;;;;;22.58;53.97;99216.50;5077422;27;45549;-77
2023/10/26 00:38:00;;;;;;;;;0.00;0.00;;;;;22.21;54.12;99149.66;5078977;27;45479;-77
2023/10/26 00:40:25;;;;;;;;;1.00;0.00;;;;;22.40;53.76;99179.09;5078517;27;45527;-77
2023/10/26 00:42:51;;;;;;;;;0.00;0.00;;;;;22.39;53.97;99174.69;5078681;27;46091;-77
2023/10/26 00:45:18;;;;;;;;;0.00;0.00;;;;;22.55;53.67;99198.00;5078591;28;45436;-77
2023/10/26 00:47:44;;;;;;;;;0.00;0.00;;;;;22.58;53.72;99205.84;5078758;27;45345;-77
2023/10/26 00:50:10;;;;;;;;;0.00;0.00;;;;;22.70;53.81;99221.34;5078509;27;46296;-77
2023/10/26 00:52:38;;;;;;;;;0.00;0.00;;;;;22.73;53.33;99220.34;5078144;27;45313;-78
2023/10/26 00:55:07;;;;;;;;;0.00;0.00;;;;;22.64;53.83;99201.16;5078194;27;46326;-78
2023/10/26 00:57:33;;;;;;;;;0.00;0.00;;;;;22.66;53.17;99198.44;5078578;27;45249;-78
2023/10/26 01:00:00;;;;;;;;;0.00;0.00;;;;;22.72;52.89;99197.31;5077806;27;45353;-78
2023/10/26 01:02:26;;;;;;;;;0.00;0.00;;;;;22.73;53.07;99194.59;5078286;27;45385;-79
2023/10/26 01:04:52;;;;;;;;;0.00;0.00;;;;;22.38;52.82;99129.50;5078192;27;45512;-78
2023/10/26 01:07:18;;;;;;;;;0.00;0.00;;;;;22.84;53.15;99202.13;5077059;28;45254;-78
2023/10/26 01:09:43;;;;;;;;;0.00;0.00;;;;;22.82;52.80;99193.34;5076387;28;45436;-77
2023/10/26 01:12:10;;;;;;;;;3.33;0.00;;;;;22.82;52.87;99186.22;5078127;28;45511;-77
2023/10/26 01:14:36;;;;;;;;;0.00;0.00;;;;;22.90;52.95;99198.31;5078131;27;45189;-78
2023/10/26 01:17:02;;;;;;;;;0.00;0.00;;;;;22.58;52.65;99145.53;5078282;27;45287;-77
2023/10/26 01:19:46;;;;;;;;;0.00;0.00;;;;;22.88;53.15;99193.09;5077669;27;46049;-77
2023/10/26 01:22:11;;;;;;;;;0.00;0.00;;;;;22.90;52.70;99203.66;5077953;27;45354;-77
2023/10/26 01:24:37;;;;;;;;;0.33;0.00;;;;;22.82;52.84;99175.56;5077871;27;45455;-77
2023/10/26 01:27:04;;;;;;;;;0.00;0.00;;;;;22.92;52.54;99183.16;5077726;27;45378;-77
2023/10/26 01:29:30;;;;;;;;;0.00;0.00;;;;;22.73;52.83;99146.66;5077744;27;45550;-77
2023/10/26 01:31:56;;;;;;;;;0.00;0.00;;;;;22.94;52.73;99179.50;5077636;27;45287;-77
2023/10/26 01:34:22;;;;;;;;;0.00;0.00;;;;;22.90;53.10;99187.69;5077667;27;45302;-77
2023/10/26 01:36:48;;;;;;;;;0.00;0.00;;;;;22.89;53.36;99185.97;5077710;27;45755;-77
2023/10/26 01:39:15;;;;;;;;;0.00;0.00;;;;;22.74;52.81;99152.84;5077865;27;45432;-77
2023/10/26 01:41:41;;;;;;;;;0.00;0.00;;;;;22.64;53.24;99139.94;5077849;28;45513;-77
2023/10/26 01:44:07;;;;;;;;;10.00;9.33;;;;;22.80;53.47;99181.88;5077609;27;45519;-77
2023/10/26 01:46:33;;;;;;;;;8.00;7.00;;;;;22.64;53.41;99153.25;5077778;28;45203;-77
2023/10/26 01:49:01;;;;;;;;;9.33;9.33;;;;;22.43;53.58;99112.41;5077147;27;45541;-77
2023/10/26 01:51:27;;;;;;;;;1.67;1.67;;;;;22.62;53.09;99140.91;5077478;27;46155;-77
2023/10/26 01:53:53;;;;;;;;;7.00;6.33;;;;;22.70;53.15;99141.50;5077510;27;45441;-77
2023/10/26 01:56:18;;;;;;;;;4.67;4.00;;;;;22.79;54.02;99157.06;5077697;27;45437;-77
2023/10/26 01:58:45;;;;;;;;;4.00;3.67;;;;;22.78;53.50;99149.13;5077465;27;45457;-77
2023/10/26 02:01:11;;;;;;;;;5.00;5.00;;;;;22.56;54.02;99122.53;5077566;27;45626;-77
2023/10/26 02:03:36;;;;;;;;;2.00;1.33;;;;;22.44;53.42;99110.63;5077287;27;45706;-77
2023/10/26 02:06:03;;;;;;;;;0.33;0.00;;;;;22.59;53.57;99128.63;5077316;27;45414;-77
2023/10/26 02:08:28;;;;;;;;;1.00;1.00;;;;;22.71;53.52;99143.19;5077265;27;46239;-77
2023/10/26 02:10:54;;;;;;;;;1.00;1.00;;;;;22.72;53.80;99158.25;5075700;27;45338;-78
2023/10/26 02:13:20;;;;;;;;;0.00;0.00;;;;;22.41;53.87;99119.59;5077441;28;45206;-77
2023/10/26 02:15:45;;;;;;;;;1.33;1.33;;;;;22.00;53.73;99041.47;5076415;27;45487;-77
2023/10/26 02:18:11;;;;;;;;;1.00;1.00;;;;;22.26;53.97;99072.34;5077100;28;46510;-77
2023/10/26 02:20:36;;;;;;;;;0.00;0.00;;;;;22.73;55.95;99173.28;5076945;27;45385;-77
2023/10/26 02:23:03;;;;;;;;;0.00;0.00;;;;;22.70;56.85;99175.22;5077433;27;45390;-77
2023/10/26 02:25:28;;;;;;;;;0.00;0.00;;;;;22.53;57.99;99174.13;5077389;27;45326;-77
2023/10/26 02:27:54;;;;;;;;;1.00;0.00;;;;;22.54;60.75;99193.59;5076856;27;45172;-77
2023/10/26 02:30:19;;;;;;;;;0.00;0.00;;;;;22.46;61.04;99191.25;5076981;27;45341;-77
2023/10/26 02:32:45;;;;;;;;;0.33;0.00;;;;;22.23;62.96;99179.72;5077343;28;45490;-77
2023/10/26 02:35:10;;;;;;;;;0.33;0.00;;;;;22.19;64.96;99194.06;5077153;27;45592;-78
2023/10/26 02:37:39;;;;;;;;;1.00;0.00;;;;;22.13;64.16;99204.09;5077298;27;45940;-77
2023/10/26 02:40:06;;;;;;;;;0.33;0.00;;;;;21.85;63.61;99150.16;5080501;27;45542;-77
2023/10/26 02:42:33;;;;;;;;;0.00;0.00;;;;;21.99;62.15;99160.28;5080537;27;45468;-77
2023/10/26 02:44:58;;;;;;;;;0.00;0.00;;;;;22.16;63.68;99177.34;5080592;27;45560;-77
2023/10/26 02:47:24;;;;;;;;;1.00;0.00;;;;;21.64;64.60;99101.34;5080131;28;45461;-77
2023/10/26 02:49:50;;;;;;;;;0.00;0.00;;;;;21.93;65.98;99173.81;5080226;27;45435;-77
2023/10/26 02:52:15;;;;;;;;;0.00;0.00;;;;;21.94;65.49;99183.50;5080312;27;45474;-84
2023/10/26 02:54:42;;;;;;;;;0.00;0.00;;;;;21.90;65.72;99168.59;5080324;27;45306;-83
2023/10/26 02:57:08;;;;;;;;;0.00;0.00;;;;;21.69;66.09;99140.19;5080041;27;46220;-83
2023/10/26 02:59:34;;;;;;;;;1.00;0.00;;;;;21.28;67.21;99086.78;5078937;27;45650;-82
2023/10/26 03:01:59;;;;;;;;;0.00;0.00;;;;;21.77;66.29;99162.03;5079065;27;45357;-77
2023/10/26 03:04:25;;;;;;;;;0.00;0.00;;;;;21.72;65.67;99156.00;5079321;27;45468;-77
2023/10/26 03:06:52;;;;;;;;;1.67;0.67;;;;;21.68;66.46;99152.59;5079690;27;45402;-77
2023/10/26 03:09:19;;;;;;;;;0.33;0.33;;;;;21.64;67.17;99159.81;5080026;27;45622;-77
2023/10/26 03:11:46;;;;;;;;;0.00;0.00;;;;;21.62;67.35;99161.66;5079638;27;45495;-77
2023/10/26 03:14:12;;;;;;;;;0.00;0.00;;;;;21.57;67.69;99145.03;5079861;28;45474;-77
2023/10/26 03:16:38;;;;;;;;;1.00;0.00;;;;;21.61;67.12;99162.59;5079697;27;45957;-77
2023/10/26 03:19:03;;;;;;;;;0.67;0.00;;;;;21.64;67.42;99166.94;5079714;27;45535;-77
2023/10/26 03:21:29;;;;;;;;;1.00;0.67;;;;;21.36;68.46;99129.88;5079788;27;45424;-77
2023/10/26 03:23:54;;;;;;;;;0.33;0.33;;;;;21.54;69.16;99169.06;5078700;27;45254;-77
2023/10/26 03:26:20;;;;;;;;;1.00;0.00;;;;;21.50;68.57;99158.59;5078670;27;45532;-77
2023/10/26 03:28:48;;;;;;;;;1.00;0.00;;;;;21.33;67.89;99144.13;5080053;27;45265;-77
2023/10/26 03:31:14;;;;;;;;;1.00;0.00;;;;;20.65;67.51;99023.56;5079755;27;45337;-77
2023/10/26 03:33:40;;;;;;;;;0.33;0.00;;;;;21.24;68.35;99120.56;5079811;28;45561;-77
2023/10/26 03:36:16;;;;;;;;;0.00;0.00;;;;;21.26;68.72;99111.59;5079465;27;45292;-77
2023/10/26 03:38:42;;;;;;;;;0.00;0.00;;;;;21.01;69.24;99070.97;5079532;27;45478;-78
2023/10/26 03:41:08;;;;;;;;;0.00;0.00;;;;;20.91;69.05;99057.16;5079472;28;45547;-77
2023/10/26 03:43:34;;;;;;;;;0.00;0.00;;;;;21.28;68.88;99108.03;5079698;27;45541;-77
2023/10/26 03:45:59;;;;;;;;;0.00;0.00;;;;;21.36;69.14;99121.88;5079248;27;45505;-77
2023/10/26 03:48:25;;;;;;;;;0.00;0.00;;;;;21.25;68.38;99109.88;5079278;27;45229;-77
2023/10/26 03:50:50;;;;;;;;;0.00;0.00;;;;;20.97;70.02;99058.69;5079555;27;45310;-77
2023/10/26 03:53:16;;;;;;;;;0.00;0.00;;;;;21.20;69.88;99111.81;5079454;27;45473;-77
2023/10/26 03:55:42;;;;;;;;;0.00;0.00;;;;;20.90;69.62;99049.22;5079452;27;45997;-77
2023/10/26 03:58:07;;;;;;;;;0.00;0.00;;;;;21.21;70.01;99096.78;5079250;28;45401;-77
2023/10/26 04:00:33;;;;;;;;;0.00;0.00;;;;;21.19;70.36;99094.19;5079234;27;45340;-77
2023/10/26 04:02:58;;;;;;;;;1.00;0.33;;;;;20.94;70.23;99058.81;5079561;27;45335;-77
2023/10/26 04:05:24;;;;;;;;;0.67;0.00;;;;;21.08;71.14;99096.34;5079166;27;45498;-76
2023/10/26 04:07:50;;;;;;;;;1.00;0.00;;;;;21.08;70.19;99099.00;5078081;28;45326;-77
2023/10/26 04:10:17;;;;;;;;;1.00;0.00;;;;;20.98;70.13;99081.66;5079127;27;45401;-77
2023/10/26 04:12:43;;;;;;;;;0.00;0.00;;;;;20.56;70.17;99002.66;5079184;27;45424;-77
2023/10/26 04:15:09;;;;;;;;;0.00;0.00;;;;;21.13;69.72;99096.16;5078767;27;45460;-77
2023/10/26 04:17:34;;;;;;;;;3.00;1.00;;;;;21.13;69.95;99105.03;5078591;27;45193;-77
2023/10/26 04:20:00;;;;;;;;;0.00;0.00;;;;;21.06;69.72;99108.81;5079153;27;45297;-77
2023/10/26 04:22:26;;;;;;;;;1.00;0.00;;;;;20.92;70.48;99103.13;5079131;27;45632;-77
2023/10/26 04:24:52;;;;;;;;;0.33;0.00;;;;;20.95;69.79;99113.63;5079141;27;46616;-77
2023/10/26 04:27:17;;;;;;;;;0.67;0.00;;;;;20.65;69.43;99045.66;5078800;27;45370;-78
2023/10/26 04:29:44;;;;;;;;;0.00;0.00;;;;;21.00;69.32;99093.09;5078869;27;45460;-78
2023/10/26 04:32:09;;;;;;;;;0.33;0.00;;;;;20.51;69.58;99007.22;5078117;27;45358;-84
2023/10/26 04:34:36;;;;;;;;;1.33;0.00;;;;;20.97;69.07;99071.97;5077968;27;45980;-84
2023/10/26 04:37:02;;;;;;;;;0.00;0.00;;;;;20.95;68.95;99060.53;5078106;27;45378;-84
2023/10/26 04:39:28;;;;;;;;;0.33;0.00;;;;;20.89;70.22;99047.47;5078229;27;45608;-83
2023/10/26 04:41:54;;;;;;;;;0.00;0.00;;;;;20.82;70.48;99053.00;5078092;27;45215;-78
2023/10/26 04:44:20;;;;;;;;;0.00;0.00;;;;;20.88;70.37;99043.13;5077296;28;45519;-78
2023/10/26 04:46:45;;;;;;;;;1.00;1.00;;;;;20.88;70.57;99040.47;5078342;27;45340;-78
2023/10/26 04:49:11;;;;;;;;;0.00;0.00;;;;;20.62;69.77;99005.09;5076878;28;45537;-84
2023/10/26 04:51:36;;;;;;;;;0.00;0.00;;;;;20.66;70.10;98999.63;5078320;27;45406;-77
2023/10/26 04:54:02;;;;;;;;;1.00;1.00;;;;;20.70;70.18;99018.97;5078181;27;46233;-78
2023/10/26 04:56:28;;;;;;;;;0.00;0.00;;;;;20.79;70.55;99053.16;5094044;27;45424;-78
2023/10/26 04:58:54;;;;;;;;;0.00;0.00;;;;;20.71;70.52;99044.59;5078539;28;45431;-78
2023/10/26 05:01:20;;;;;;;;;0.33;0.00;;;;;20.62;69.91;99040.47;5093754;27;45471;-78
2023/10/26 05:03:45;;;;;;;;;0.00;0.00;;;;;20.30;70.35;98983.22;5077241;27;46031;-81
2023/10/26 05:06:11;;;;;;;;;0.00;0.00;;;;;20.79;69.71;99068.19;5077363;27;45440;-78
2023/10/26 05:08:37;;;;;;;;;0.00;0.00;;;;;20.77;69.73;99077.97;5077512;27;45240;-80
2023/10/26 05:11:03;;;;;;;;;0.00;0.00;;;;;20.76;69.67;99077.13;5077495;27;45398;-81
2023/10/26 05:13:29;;;;;;;;;0.00;0.00;;;;;20.66;69.33;99051.84;5077158;27;45350;-77
2023/10/26 05:15:54;;;;;;;;;1.00;0.00;;;;;20.65;69.78;99056.28;5077375;27;45512;-77
2023/10/26 05:18:20;;;;;;;;;0.00;0.00;;;;;20.59;69.53;99029.09;5077230;27;45234;-76
2023/10/26 05:20:49;;;;;;;;;0.33;0.33;;;;;20.31;69.50;98982.28;5077327;28;45309;-78
2023/10/26 05:23:15;;;;;;;;;0.00;0.00;;;;;20.60;69.32;99031.69;5076925;27;45491;-77
2023/10/26 05:25:40;;;;;;;;;0.00;0.00;;;;;20.52;70.35;99032.84;5076778;28;45345;-76
2023/10/26 05:28:06;;;;;;;;;13.75;13.25;;;;;20.25;70.42;99016.97;5076985;28;45520;-77
2023/10/26 05:30:32;;;;;;;;;0.00;0.00;;;;;20.40;70.16;99031.50;5077316;27;45516;-76
2023/10/26 05:32:58;;;;;;;;;0.67;0.00;;;;;20.29;70.13;98991.22;5076845;27;45254;-77
2023/10/26 05:35:24;;;;;;;;;0.00;0.00;;;;;20.00;70.06;98946.22;5077059;27;45445;-77
2023/10/26 05:37:49;;;;;;;;;0.00;0.00;;;;;19.70;69.92;98886.31;5076960;27;45604;-76
2023/10/26 05:40:15;;;;;;;;;0.00;0.00;;;;;20.33;70.27;98996.34;5077017;27;45373;-76
2023/10/26 05:42:41;;;;;;;;;0.00;0.00;;;;;19.98;70.65;98939.25;5073981;28;45583;-76
2023/10/26 05:45:07;;;;;;;;;0.00;0.00;;;;;20.33;70.42;98983.09;5076933;27;45585;-76
2023/10/26 05:47:33;;;;;;;;;0.00;0.00;;;;;20.24;70.61;98991.38;5076996;28;45504;-76
2023/10/26 05:49:58;;;;;;;;;0.00;0.00;;;;;19.73;70.46;98908.25;5076697;27;45509;-77
2023/10/26 05:52:24;;;;;;;;;0.00;0.00;;;;;20.19;70.31;98983.59;5076818;27;45500;-77
2023/10/26 05:54:52;;;;;;;;;0.00;0.00;;;;;20.14;70.66;98974.91;5076738;28;45539;-77
2023/10/26 05:57:18;;;;;;;;;4.00;3.00;;;;;20.13;70.91;98970.50;5076841;27;45796;-77
2023/10/26 05:59:43;;;;;;;;;0.00;0.00;;;;;20.06;70.89;98956.63;5077455;27;45353;-78
2023/10/26 06:02:09;;;;;;;;;2.00;2.00;;;;;19.65;71.03;98886.44;5081947;28;45491;-79
2023/10/26 06:04:35;;;;;;;;;1.00;1.00;;;;;20.10;70.78;98961.81;5075475;28;46091;-77
2023/10/26 06:07:01;;;;;;;;;0.00;0.00;;;;;20.00;70.85;98967.44;5076818;27;45431;-78
2023/10/26 06:09:27;;;;;;;;;0.00;0.00;;;;;19.99;70.21;98965.69;5074475;28;45351;-82
2023/10/26 06:11:53;;;;;;;;;1.00;1.00;;;;;20.01;70.92;98965.63;5077153;27;45325;-78
2023/10/26 06:14:19;;;;;;;;;0.00;0.00;;;;;19.93;70.35;98965.91;5080723;27;45572;-79
2023/10/26 06:16:44;;;;;;;;;0.00;0.00;;;;;19.55;70.46;98896.47;5080821;27;45519;-78
2023/10/26 06:19:11;;;;;;;;;0.00;0.00;;;;;19.88;70.62;98956.38;5080829;28;45400;-78
2023/10/26 06:21:38;;;;;;;;;0.67;0.33;;;;;19.85;70.30;98963.50;5080660;27;45437;-77
2023/10/26 06:24:05;;;;;;;;;0.00;0.00;;;;;19.58;69.69;98916.72;5080718;27;45452;-77
2023/10/26 06:26:31;;;;;;;;;0.00;0.00;;;;;19.48;70.00;98905.56;5080493;27;45421;-77
2023/10/26 06:28:56;;;;;;;;;0.00;0.00;;;;;19.84;70.18;98961.78;5081238;27;45342;-77
2023/10/26 06:31:22;;;;;;;;;0.00;0.00;;;;;18.72;69.74;98777.38;5087511;27;45526;-78
2023/10/26 06:33:48;;;;;;;;;6.00;4.33;;;;;19.83;70.53;98975.06;5085426;27;45409;-78
2023/10/26 06:36:13;;;;;;;;;15.75;14.75;;;;;19.80;69.67;98975.19;5091084;27;45479;-78
2023/10/26 06:38:40;;;;;;;;;5.67;5.00;;;;;19.80;69.53;98967.25;5088729;27;45394;-81
2023/10/26 06:41:08;;;;;;;;;0.67;0.67;;;;;19.71;70.25;98946.31;5081964;27;45499;-77
2023/10/26 06:43:36;;;;;;;;;0.00;0.00;;;;;19.68;70.68;98950.78;5079526;27;45460;-84
2023/10/26 06:46:02;;;;;;;;;0.00;0.00;;;;;19.72;70.29;98934.84;5077460;28;45331;-77
2023/10/26 06:48:27;;;;;;;;;0.00;0.00;;;;;19.71;70.49;98947.19;5079800;27;45477;-77
2023/10/26 06:51:11;;;;;;;;;0.00;0.00;;;;;19.72;70.26;98956.03;5078601;27;46599;-77
2023/10/26 06:53:36;;;;;;;;;5.00;5.00;;;;;19.68;70.65;98958.72;5092425;27;45422;-83
2023/10/26 06:56:09;;;;;;;;;10.00;9.67;;;;;19.52;70.40;98938.97;5079575;28;45475;-77
2023/10/26 06:58:35;;;;;;;;;13.75;13.25;;;;;19.67;70.12;98972.88;5080364;27;45283;-76
2023/10/26 07:01:06;;;;;;;;;8.67;8.67;;;;;19.70;70.65;98955.19;5080212;27;45404;-78
2023/10/26 07:03:32;;;;;;;;;11.75;11.50;;;;;19.70;70.41;98950.75;5079777;27;45855;-76
2023/10/26 07:06:01;;;;;;;;;6.00;6.00;;;;;19.30;70.43;98877.00;5079228;28;45353;-77
2023/10/26 07:08:27;;;;;;;;;5.67;5.67;;;;;19.70;70.96;98949.88;5079901;27;45500;-82
2023/10/26 07:10:54;;;;;;;;;3.67;3.67;;;;;19.57;70.19;98942.31;5079171;27;46450;-79
2023/10/26 07:13:20;;;;;;;;;1.33;1.33;;;;;19.61;69.84;98943.94;5079201;27;45551;-85
2023/10/26 07:15:46;;;;;;;;;0.00;0.00;;;;;19.42;71.05;98916.34;5078968;27;45511;-76
2023/10/26 07:18:13;;;;;;;;;3.00;2.00;;;;;19.55;70.58;98956.53;5079626;27;45315;-77
2023/10/26 07:20:39;;;;;;;;;1.33;1.00;;;;;19.13;70.75;98901.38;5078228;27;45588;-77
2023/10/26 07:23:04;;;;;;;;;7.67;6.67;;;;;19.60;70.33;98973.16;5078774;27;45483;-78
2023/10/26 07:25:34;;;;;;;;;4.67;4.67;;;;;19.51;70.95;98954.91;5078586;27;45418;-81
2023/10/26 07:27:59;;;;;;;;;1.00;1.00;;;;;19.13;70.71;98881.06;5079357;27;45753;-81
2023/10/26 07:30:25;;;;;;;;;1.00;1.00;;;;;19.65;70.91;98981.81;5078134;28;45455;-81
2023/10/26 07:32:50;;;;;;;;;0.00;0.00;;;;;19.18;71.28;98907.38;5078300;28;45380;-78
2023/10/26 07:35:16;;;;;;;;;0.00;0.00;;;;;19.08;71.32;98883.00;5078638;27;45515;-79
2023/10/26 07:37:42;;;;;;;;;0.00;0.00;;;;;19.74;71.37;98984.19;5079914;27;45299;-79
2023/10/26 07:40:09;;;;;;;;;0.00;0.00;;;;;19.46;70.98;98949.75;5085125;27;45332;-79
2023/10/26 07:42:37;;;;;;;;;0.67;0.00;;;;;19.81;70.70;99009.56;5090866;28;45329;-82
2023/10/26 07:45:15;;;;;;;;;0.00;0.00;;;;;19.05;70.83;98889.25;5101194;27;44752;-83
2023/10/26 07:47:41;;;;;;;;;0.00;0.00;;;;;19.81;70.68;99006.91;5075776;28;45353;-81
2023/10/26 07:50:07;;;;;;;;;0.00;0.00;;;;;19.83;70.74;99015.69;5078446;28;45369;-82
2023/10/26 07:52:32;;;;;;;;;0.00;0.00;;;;;19.68;71.16;98993.16;5078815;27;45926;-80
2023/10/26 07:54:58;;;;;;;;;2.67;2.67;;;;;19.01;70.87;98903.47;5078407;28;45568;-82
2023/10/26 07:57:25;;;;;;;;;3.67;3.67;;;;;19.76;71.44;99032.72;5079048;27;45452;-82
2023/10/26 07:59:50;;;;;;;;;1.33;1.33;;;;;19.77;71.38;99038.88;5078899;27;46669;-79
2023/10/26 08:02:16;;;;;;;;;2.67;1.67;;;;;19.80;70.99;99038.78;5078713;27;45861;-75
2023/10/26 08:04:41;;;;;;;;;0.33;0.33;;;;;19.82;71.44;99044.91;5089719;27;44885;-74
2023/10/26 08:07:08;;;;;;;;;3.67;3.33;;;;;19.79;71.30;99037.03;5094185;28;45489;-74
2023/10/26 08:09:33;;;;;;;;;2.33;1.67;;;;;19.70;71.54;99008.16;5081559;27;45464;-77
2023/10/26 08:12:00;;;;;;;;;0.00;0.00;;;;;19.82;71.25;99032.50;5079370;27;45412;-78
2023/10/26 08:14:29;;;;;;;;;0.00;0.00;;;;;19.80;70.25;99036.13;5078340;27;45445;-79
2023/10/26 08:16:57;;;;;;;;;0.00;0.00;;;;;19.86;69.86;99027.97;5077632;27;45504;-81
2023/10/26 08:19:23;;;;;;;;;0.00;0.00;;;;;19.82;70.41;99039.59;5078497;27;46726;-78
2023/10/26 08:21:49;;;;;;;;;0.00;0.00;;;;;19.70;70.64;99005.53;5078910;28;45436;-77
2023/10/26 08:24:15;;;;;;;;;2.00;2.00;;;;;19.95;70.53;99042.72;5078721;27;45352;-77
2023/10/26 08:26:41;;;;;;;;;0.00;0.00;;;;;19.97;70.37;99051.47;5079117;27;45260;-77
2023/10/26 08:29:06;;;;;;;;;0.00;0.00;;;;;19.85;69.63;99034.19;5078820;28;45529;-77
2023/10/26 08:31:35;;;;;;;;;0.00;0.00;;;;;20.00;68.25;99059.34;5078439;27;45608;-82
2023/10/26 08:34:01;;;;;;;;;0.00;0.00;;;;;19.65;67.76;99025.03;5079276;27;45427;-81
2023/10/26 08:36:27;;;;;;;;;0.67;0.67;;;;;19.75;68.18;99052.16;5077889;27;45504;-83
2023/10/26 08:38:52;;;;;;;;;0.00;0.00;;;;;19.79;68.28;99053.78;5078395;27;45476;-82
2023/10/26 08:41:18;;;;;;;;;0.00;0.00;;;;;19.86;68.13;99065.94;5077538;27;45396;-77
2023/10/26 08:43:43;;;;;;;;;0.00;0.00;;;;;19.65;67.87;99035.66;5078657;28;45326;-82
2023/10/26 08:46:10;;;;;;;;;0.00;0.00;;;;;19.54;68.54;99032.47;5078702;28;45260;-82
2023/10/26 08:48:39;;;;;;;;;1.67;1.67;;;;;19.74;67.54;99063.69;5078299;27;45494;-77
2023/10/26 08:51:05;;;;;;;;;1.00;1.00;;;;;19.67;68.21;99041.75;5077187;27;45422;-82
2023/10/26 08:53:34;;;;;;;;;0.00;0.00;;;;;19.68;68.08;99054.09;5077433;27;45478;-82
2023/10/26 08:56:00;;;;;;;;;0.67;0.67;;;;;19.65;68.30;99062.13;5078483;27;45449;-82
2023/10/26 08:58:26;;;;;;;;;2.33;1.67;;;;;19.19;69.01;99001.78;5077838;27;45482;-82
2023/10/26 09:00:52;;;;;;;;;0.67;0.67;;;;;19.35;69.03;99026.88;5081527;28;45248;-80
2023/10/26 09:03:18;;;;;;;;;2.67;2.67;;;;;19.51;68.68;99026.41;5081454;27;45267;-81
2023/10/26 09:05:55;;;;;;;;;1.67;1.67;;;;;19.34;68.80;98995.13;5078570;27;45458;-82
2023/10/26 09:08:23;;;;;;;;;1.00;0.00;;;;;19.46;68.20;99008.88;5077808;27;46492;-82
2023/10/26 09:10:49;;;;;;;;;2.00;2.00;;;;;19.22;68.54;98977.88;5077847;28;45392;-81
2023/10/26 09:13:26;;;;;;;;;1.00;1.00;;;;;19.63;68.32;99048.06;5077832;27;45407;-83
2023/10/26 09:15:55;;;;;;;;;1.33;1.33;;;;;19.61;68.23;99049.03;5078398;27;45295;-83
2023/10/26 09:18:22;;;;;;;;;2.00;2.00;;;;;19.50;68.42;99057.34;5077568;27;45339;-83
2023/10/26 09:21:02;;;;;;;;;3.00;3.00;;;;;19.49;68.37;99044.97;5078047;27;45761;-83
2023/10/26 09:23:30;;;;;;;;;2.67;2.67;;;;;19.49;68.03;99042.34;5077915;27;45518;-78
2023/10/26 09:26:04;;;;;;;;;1.33;1.33;;;;;18.95;67.86;98946.00;5078721;27;45302;-77
2023/10/26 09:28:46;;;;;;;;;1.67;1.00;;;;;19.48;67.65;99016.78;5077642;27;46181;-80
2023/10/26 09:31:12;;;;;;;;;1.33;1.00;;;;;19.23;67.22;98972.50;5077658;27;45331;-84
2023/10/26 09:33:37;;;;;;;;;0.00;0.00;;;;;19.20;67.38;98961.13;5078219;28;45441;-77
2023/10/26 09:36:12;;;;;;;;;0.00;0.00;;;;;19.20;67.35;98977.00;5077918;27;45358;-77
2023/10/26 09:38:39;;;;;;;;;0.00;0.00;;;;;18.94;67.26;98956.63;5077790;27;46378;-77
2023/10/26 09:41:11;;;;;;;;;4.00;3.67;;;;;19.01;67.53;98974.06;5077869;27;45350;-83
2023/10/26 09:43:37;;;;;;;;;0.00;0.00;;;;;19.14;67.68;98998.38;5077806;27;45287;-84
2023/10/26 09:46:03;;;;;;;;;0.00;0.00;;;;;18.88;67.57;98950.63;5077570;27;45283;-77
2023/10/26 09:48:30;;;;;;;;;0.00;0.00;;;;;19.36;67.17;99002.13;5077111;27;46288;-77
2023/10/26 09:51:00;;;;;;;;;0.00;0.00;;;;;19.13;67.33;98962.25;5075846;28;45355;-76
2023/10/26 09:53:32;;;;;;;;;0.00;0.00;;;;;19.20;67.27;98969.06;5077477;27;45405;-82
2023/10/26 09:56:01;;;;;;;;;0.00;0.00;;;;;19.12;67.37;98945.50;5077539;27;45327;-77
2023/10/26 09:58:31;;;;;;;;;0.00;0.00;;;;;19.36;67.35;98974.75;5075523;27;45612;-81
2023/10/26 10:00:56;;;;;;;;;1.00;0.00;;;;;19.35;67.45;98978.34;5077083;28;45430;-78
2023/10/26 10:03:22;;;;;;;;;2.67;2.00;;;;;19.26;67.71;98960.97;5077305;27;45318;-80
2023/10/26 10:05:48;;;;;;;;;0.00;0.00;;;;;19.05;67.73;98926.28;5077553;27;45387;-81
2023/10/26 10:08:14;;;;;;;;;1.33;1.00;;;;;19.08;68.31;98943.88;5076945;27;45392;-83
2023/10/26 10:11:18;;;;;;;;;0.00;0.00;;;;;19.28;68.94;98978.53;5077588;27;45471;-80
2023/10/26 10:13:43;;;;;;;;;1.33;1.00;;;;;19.27;67.96;98958.25;5077132;28;45444;-82
2023/10/26 10:16:34;;;;;;;;;1.33;1.00;;;;;19.38;68.14;98968.53;5077553;28;45389;-79
2023/10/26 10:19:22;;;;;;;;;8.67;8.67;;;;;19.43;67.56;98971.03;5076777;28;46386;-81
2023/10/26 10:21:51;;;;;;;;;0.33;0.33;;;;;19.42;68.40;98954.28;5076808;27;45445;-82
2023/10/26 10:24:44;;;;;;;;;1.00;0.00;;;;;19.53;67.82;98950.41;5076822;27;45581;-82
2023/10/26 10:27:13;;;;;;;;;0.00;0.00;;;;;19.60;67.31;98931.63;5077509;27;45400;-83
2023/10/26 10:29:42;;;;;;;;;3.00;3.00;;;;;19.66;66.67;98939.38;5077421;27;45299;-79
2023/10/26 10:32:13;;;;;;;;;0.67;0.67;;;;;19.43;66.93;98903.03;5076837;27;45308;-77
2023/10/26 10:34:46;;;;;;;;;1.33;1.33;;;;;19.63;67.61;98944.75;5077133;27;45516;-78
2023/10/26 10:37:21;;;;;;;;;1.00;1.00;;;;;19.23;67.58;98868.41;5080338;27;45507;-79
2023/10/26 10:40:14;;;;;;;;;0.00;0.00;;;;;19.70;66.92;98918.09;5082423;27;46034;-78
2023/10/26 10:42:45;;;;;;;;;0.00;0.00;;;;;19.80;66.59;98916.91;5085937;27;45284;-83
2023/10/26 10:45:11;;;;;;;;;1.00;1.00;;;;;19.79;66.67;98907.19;5079042;27;45433;-82
2023/10/26 10:47:38;;;;;;;;;0.67;0.67;;;;;19.78;66.44;98911.63;5076838;27;45218;-83
2023/10/26 10:50:15;;;;;;;;;5.67;5.00;;;;;19.55;67.41;98888.53;5076713;27;46238;-84
2023/10/26 10:52:41;;;;;;;;;0.67;0.67;;;;;19.62;67.69;98913.91;5075781;28;45374;-83
2023/10/26 10:55:07;;;;;;;;;1.00;1.00;;;;;19.67;67.60;98921.69;5076593;27;45252;-83
2023/10/26 10:57:33;;;;;;;;;1.33;1.33;;;;;19.21;68.00;98847.25;5075222;27;45642;-81
2023/10/26 10:59:59;;;;;;;;;1.67;1.67;;;;;19.51;68.21;98873.66;5077859;27;45425;-82
2023/10/26 11:02:24;;;;;;;;;0.67;0.67;;;;;19.41;67.30;98824.56;5079121;28;45704;-83
2023/10/26 11:04:58;;;;;;;;;0.67;0.67;;;;;19.91;67.23;98888.22;5079840;27;45366;-83
2023/10/26 11:07:28;;;;;;;;;0.00;0.00;;;;;19.99;66.58;98875.56;5080645;27;45755;-84
2023/10/26 11:09:58;;;;;;;;;0.00;0.00;;;;;20.04;66.87;98868.34;5079911;27;46098;-78
2023/10/26 11:12:24;;;;;;;;;0.33;0.00;;;;;19.75;67.09;98802.25;5079958;27;45759;-78
2023/10/26 11:14:51;;;;;;;;;0.00;0.00;;;;;20.15;66.47;98838.78;5080190;27;45468;-78
2023/10/26 11:17:21;;;;;;;;;0.00;0.00;;;;;20.08;67.10;98826.69;5080149;27;45496;-79
2023/10/26 11:19:48;;;;;;;;;0.00;0.00;;;;;20.18;66.69;98837.81;5079496;28;45499;-81
2023/10/26 11:22:15;;;;;;;;;0.00;0.00;;;;;19.93;66.70;98784.81;5079792;27;46024;-79
2023/10/26 11:24:41;;;;;;;;;0.00;0.00;;;;;19.55;67.32;98740.22;5080335;28;45503;-84
2023/10/26 11:27:15;;;;;;;;;1.33;1.33;;;;;19.74;68.42;98785.50;5080595;27;45329;-84
2023/10/26 11:29:42;;;;;;;;;0.00;0.00;;;;;19.90;68.27;98791.09;5085845;27;46210;-84
2023/10/26 11:32:34;;;;;;;;;0.33;0.33;;;;;20.09;67.84;98808.97;5093100;27;45397;-84
2023/10/26 11:35:11;;;;;;;;;2.67;2.67;;;;;19.68;67.44;98752.09;5084159;27;45425;-84